Long Mott, Texas
Current Conditions -  °F | °C
As of 2:35 AM on Friday 24 Oct 2014 (Local Time) from KPKV Reporting Station
Clear Clear  
Wind Chill: 64°   Ceiling: Unl
Heat Index: 64°   Visibility: 10mi
Dew Point: 58°   Wind: 5mph
Humidity: 83%   Direction: 70°ENE
Pressure: 30.1"   Gusts: NA
Location:  28.48°N, 96.76°W
Report Text: KPKV 240735Z AUTO 07004KT 10SM CLR 18/15 A3010 RMK AO2 T01750145
Loading
Personal Weather Stations






























Interactive Weather Map
Tropical Storm Tracking
New forecast layout! Learn more

10-Day Weather Forecast

Advertisements
Track Severe Weather on mobile